Strona główna
METAR-TAF:

METAR-TAF

Lotnisko :

Port lotniczy Dzaoudzi

Dzaoudzi, Majotta

Szerokość geograficzna: 12-48S, Długość geograficzna: 045-17E, wysokość: 8 m

Aktualna obserwacja pogody

Raport powstał 16 minut temu, godzina 22:00 UTC
Wiatr 12 kt od południowo-południowy zachód
Temperatura 27°C
Wilgotność 84%
Ciśnienie 1014 hPa
Widzialność 10 km lub więcej
Brak chmur poniżej 1500 m i brak chmur cumulonimbus

METAR: FMCZ 302200Z AUTO 21012KT CAVOK 27/24 Q1014 NOSIG

czas: 01:16 (22:16 UTC)

Prognoza

Raport powstał 5 godziny i 16 minut temu, godzina 17:00 UTC
Prognoza ważna od 30 godzina 18 UTC do 31 godzina 18 UTC
Wiatr 10 kt od południe
Widzialność 10 km lub więcej
Mało chmury na wysokości 2000 ft
Stopniowe zmiany
od 31 godzina 08 UTC do 31 godzina 10 UTC
Wiatr 5 kt od wschód
Prawdopodobieństwo 40% :
Przejściowo
od 31 godzina 10 UTC do 31 godzina 18 UTC
Rozproszone chmury na wysokości 2000 ft, Cumulusy wypiętrznone.

TAF: FMCZ 301700Z 3018/3118 18010KT 9999 FEW020 BECMG 3108/3110 09005KT PROB40 TEMPO 3110/3118 SCT020TCU

Obserwacja i prognoza pogody dla ponad 4000 lotnisk (raport METAR i TAF).

Dostępne stacje oznaczono żółtymi i czerwonymi punktami na mapie.

Najedź kursorem aby zobaczyć nazwę stacji.

Kliknij aby zobaczyć obserwacje i prognozy pogody.

Aby zmienić mapę: kliknij na zielony przycisk z czarnym krzyżykiem, aby powiększyć; na zielony przycisk z myślnikiem, aby pomniejszyć; na zielone strzałki, aby przejść do map sąsiednich.


METAR-TAF: